createdAt,value
2023-03-04T00:00:30.893Z,100450.91
2023-03-04T00:02:58.166Z,100445.03
2023-03-04T00:05:25.417Z,100454.84
2023-03-04T00:07:52.322Z,100461.31
2023-03-04T00:10:19.395Z,100456.28
2023-03-04T00:12:46.363Z,100451.25
2023-03-04T00:15:13.295Z,100454.13
2023-03-04T00:17:40.241Z,100457.81
2023-03-04T00:20:08.865Z,100459.88
2023-03-04T00:22:36.057Z,100450.53
2023-03-04T00:25:03.031Z,100456.75
2023-03-04T00:27:30.153Z,100454.38
2023-03-04T00:29:57.747Z,100456.25
2023-03-04T00:32:24.992Z,100456.50
2023-03-04T00:34:51.986Z,100462.00
2023-03-04T00:37:18.954Z,100468.31
2023-03-04T00:39:45.970Z,100464.16
2023-03-04T00:42:12.957Z,100468.78
2023-03-04T00:44:39.932Z,100464.75
2023-03-04T00:47:06.925Z,100468.41
2023-03-04T00:49:33.839Z,100469.38
2023-03-04T00:52:00.785Z,100469.63
2023-03-04T00:54:27.840Z,100478.56
2023-03-04T00:56:54.857Z,100463.03
2023-03-04T00:59:22.053Z,100476.31
2023-03-04T01:01:49.057Z,100467.78
2023-03-04T01:04:17.963Z,100469.81
2023-03-04T01:06:44.998Z,100474.47
2023-03-04T01:09:14.046Z,100468.59
2023-03-04T01:11:41.257Z,100467.88
2023-03-04T01:14:08.246Z,100475.03
2023-03-04T01:16:35.583Z,100467.38
2023-03-04T01:19:02.729Z,100468.56
2023-03-04T01:21:31.096Z,100462.69
2023-03-04T01:23:58.071Z,100465.44
2023-03-04T01:26:25.010Z,100461.34
2023-03-04T01:28:52.381Z,100461.59
2023-03-04T01:31:19.667Z,100457.41
2023-03-04T01:33:46.731Z,100458.47
2023-03-04T01:36:13.991Z,100455.13
2023-03-04T01:38:41.008Z,100455.34
2023-03-04T01:41:08.512Z,100460.81
2023-03-04T01:43:37.988Z,100454.84
2023-03-04T01:46:06.231Z,100458.53
2023-03-04T01:48:38.168Z,100458.75
2023-03-04T01:51:07.166Z,100455.38
2023-03-04T01:53:34.400Z,100451.22
2023-03-04T01:56:12.221Z,100447.88
2023-03-04T01:58:39.173Z,100441.16
2023-03-04T02:01:06.084Z,100445.69
2023-03-04T02:03:33.231Z,100441.47
2023-03-04T02:06:01.361Z,100434.69
2023-03-04T02:08:28.538Z,100437.53
2023-03-04T02:10:57.086Z,100431.53
2023-03-04T02:13:24.053Z,100428.22
2023-03-04T02:15:52.046Z,100431.91
2023-03-04T02:18:24.918Z,100430.31
2023-03-04T02:21:25.052Z,100434.13
2023-03-04T02:24:26.804Z,100435.16
2023-03-04T02:26:53.953Z,100436.25
2023-03-04T02:29:21.232Z,100434.69
2023-03-04T02:31:52.421Z,100429.66
2023-03-04T02:34:23.185Z,100431.66
2023-03-04T02:36:53.770Z,100429.13
2023-03-04T02:39:20.685Z,100431.88
2023-03-04T02:41:50.728Z,100426.84
2023-03-04T02:44:31.159Z,100430.63
2023-03-04T02:46:59.876Z,100429.78
2023-03-04T02:49:31.191Z,100418.66
2023-03-04T02:52:22.022Z,100424.16
2023-03-04T02:54:49.013Z,100420.81
2023-03-04T02:57:17.257Z,100421.00
2023-03-04T02:59:48.176Z,100423.75
2023-03-04T03:02:19.284Z,100422.28
2023-03-04T03:04:46.283Z,100419.78
2023-03-04T03:07:15.900Z,100422.50
2023-03-04T03:09:43.519Z,100420.94
2023-03-04T03:12:10.915Z,100423.66
2023-03-04T03:14:38.088Z,100414.94
2023-03-04T03:17:05.977Z,100420.31
2023-03-04T03:19:33.019Z,100418.75
2023-03-04T03:22:02.893Z,100417.91
2023-03-04T03:24:29.940Z,100417.16
2023-03-04T03:26:56.912Z,100419.91
2023-03-04T03:29:24.536Z,100413.00
2023-03-04T03:31:51.555Z,100415.81
2023-03-04T03:34:20.526Z,100414.13
2023-03-04T03:36:48.602Z,100410.78
2023-03-04T03:39:15.727Z,100416.22
2023-03-04T03:41:42.719Z,100418.03
2023-03-04T03:44:09.664Z,100427.78
2023-03-04T03:46:36.667Z,100420.03
2023-03-04T03:49:03.646Z,100419.38
2023-03-04T03:51:30.573Z,100422.13
2023-03-04T03:53:57.479Z,100428.31
2023-03-04T03:56:24.407Z,100425.88
2023-03-04T03:58:51.370Z,100427.78
2023-03-04T04:01:18.342Z,100432.31
2023-03-04T04:03:45.276Z,100426.34
2023-03-04T04:06:12.314Z,100435.13
2023-03-04T04:08:39.339Z,100435.22
2023-03-04T04:11:06.255Z,100434.50
2023-03-04T04:13:33.181Z,100437.25
2023-03-04T04:16:00.166Z,100439.03
2023-03-04T04:18:27.760Z,100428.63
2023-03-04T04:20:55.135Z,100432.09
2023-03-04T04:23:22.172Z,100438.19
2023-03-04T04:25:49.139Z,100439.03
2023-03-04T04:28:16.168Z,100443.31
2023-03-04T04:30:43.295Z,100427.47
2023-03-04T04:33:10.610Z,100437.00
2023-03-04T04:35:38.822Z,100437.66
2023-03-04T04:38:07.860Z,100434.09
2023-03-04T04:40:34.952Z,100433.03
2023-03-04T04:43:02.273Z,100436.38
2023-03-04T04:45:29.243Z,100441.41
2023-03-04T04:47:57.412Z,100446.44
2023-03-04T04:50:25.101Z,100440.16
2023-03-04T04:52:52.478Z,100438.06
2023-03-04T04:55:19.569Z,100440.56
2023-03-04T04:57:46.530Z,100443.91
2023-03-04T05:00:14.356Z,100441.94
2023-03-04T05:02:41.303Z,100447.91
2023-03-04T05:05:08.570Z,100442.56
2023-03-04T05:07:35.581Z,100435.53
2023-03-04T05:10:03.017Z,100435.53
2023-03-04T05:12:30.168Z,100438.91
2023-03-04T05:14:57.145Z,100432.78
2023-03-04T05:17:24.101Z,100437.19
2023-03-04T05:19:51.047Z,100433.72
2023-03-04T05:22:18.028Z,100440.75
2023-03-04T05:24:44.980Z,100448.75
2023-03-04T05:27:12.055Z,100445.41
2023-03-04T05:29:39.068Z,100447.06
2023-03-04T05:32:06.043Z,100451.47
2023-03-04T05:34:33.087Z,100452.44
2023-03-04T05:37:00.035Z,100447.91
2023-03-04T05:39:26.969Z,100448.75
2023-03-04T05:41:53.949Z,100453.97
2023-03-04T05:44:20.916Z,100451.25
2023-03-04T05:46:47.890Z,100447.78
2023-03-04T05:49:14.847Z,100458.28
2023-03-04T05:51:41.773Z,100453.75
2023-03-04T05:54:08.785Z,100446.75
2023-03-04T05:56:35.820Z,100456.28
2023-03-04T05:59:02.866Z,100449.25
2023-03-04T06:01:31.277Z,100452.72
2023-03-04T06:03:58.342Z,100448.31
2023-03-04T06:06:25.345Z,100449.03
2023-03-04T06:08:52.344Z,100450.72
2023-03-04T06:11:19.310Z,100452.28
2023-03-04T06:13:46.279Z,100453.13
2023-03-04T06:16:13.242Z,100462.69
2023-03-04T06:18:40.244Z,100470.53
2023-03-04T06:21:07.208Z,100469.47
2023-03-04T06:23:34.167Z,100473.88
2023-03-04T06:26:01.986Z,100480.81
2023-03-04T06:28:29.408Z,100478.94
2023-03-04T06:30:57.769Z,100485.00
2023-03-04T06:33:25.546Z,100489.44
2023-03-04T06:35:57.687Z,100481.56
2023-03-04T06:38:26.322Z,100488.47
2023-03-04T06:40:56.082Z,100489.19
2023-03-04T06:43:24.339Z,100499.56
2023-03-04T06:45:51.365Z,100499.50
2023-03-04T06:48:18.297Z,100499.25
2023-03-04T06:50:45.214Z,100501.69
2023-03-04T06:53:12.175Z,100504.19
2023-03-04T06:55:39.084Z,100507.53
2023-03-04T06:58:06.049Z,100507.34
2023-03-04T07:00:33.083Z,100507.00
2023-03-04T07:03:00.344Z,100500.72
2023-03-04T07:05:27.499Z,100506.56
2023-03-04T07:07:54.693Z,100505.31
2023-03-04T07:10:21.617Z,100511.19
2023-03-04T07:12:48.571Z,100508.22
2023-03-04T07:15:15.524Z,100513.03
2023-03-04T07:17:42.719Z,100513.66
2023-03-04T07:20:10.696Z,100517.59
2023-03-04T07:22:37.823Z,100529.56
2023-03-04T07:25:06.580Z,100531.06
2023-03-04T07:27:33.538Z,100525.44
2023-03-04T07:30:00.515Z,100527.75
2023-03-04T07:32:27.495Z,100520.50
2023-03-04T07:34:54.447Z,100528.97
2023-03-04T07:37:21.393Z,100534.03
2023-03-04T07:39:48.421Z,100526.75
2023-03-04T07:42:15.411Z,100536.31
2023-03-04T07:44:51.023Z,100531.56
2023-03-04T07:47:17.961Z,100523.34
2023-03-04T07:49:44.901Z,100528.38
2023-03-04T07:52:14.202Z,100529.84
2023-03-04T07:54:41.172Z,100535.59
2023-03-04T07:57:08.103Z,100538.81
2023-03-04T07:59:35.026Z,100545.53
2023-03-04T08:02:01.957Z,100544.34
2023-03-04T08:04:28.977Z,100545.91
2023-03-04T08:06:55.925Z,100547.47
2023-03-04T08:09:22.937Z,100546.31
2023-03-04T08:11:49.870Z,100547.75
2023-03-04T08:14:16.924Z,100535.34
2023-03-04T08:16:43.887Z,100544.78
2023-03-04T08:19:12.497Z,100549.78
2023-03-04T08:21:39.520Z,100546.81
2023-03-04T08:24:08.682Z,100541.34
2023-03-04T08:26:43.750Z,100541.94
2023-03-04T08:29:16.006Z,100544.25
2023-03-04T08:31:46.294Z,100547.59
2023-03-04T08:34:15.378Z,100547.38
2023-03-04T08:36:42.747Z,100551.53
2023-03-04T08:39:14.216Z,100552.13
2023-03-04T08:41:41.750Z,100545.81
2023-03-04T08:44:10.233Z,100542.84
2023-03-04T08:46:39.551Z,100532.91
2023-03-04T08:49:07.340Z,100549.31
2023-03-04T08:51:35.736Z,100549.91
2023-03-04T08:54:05.845Z,100548.84
2023-03-04T08:56:32.839Z,100545.00
2023-03-04T08:59:00.140Z,100549.22
2023-03-04T09:01:27.344Z,100553.41
2023-03-04T09:03:54.858Z,100550.66
2023-03-04T09:06:21.814Z,100553.06
2023-03-04T09:08:48.739Z,100551.13
2023-03-04T09:11:16.078Z,100546.72
2023-03-04T09:13:43.056Z,100551.00
2023-03-04T09:16:12.736Z,100556.28
2023-03-04T09:18:41.594Z,100543.00
2023-03-04T09:21:09.399Z,100550.06
2023-03-04T09:23:37.897Z,100545.53
2023-03-04T09:26:22.368Z,100551.50
2023-03-04T09:28:55.126Z,100548.63
2023-03-04T09:31:22.274Z,100552.81
2023-03-04T09:33:52.103Z,100555.34
2023-03-04T09:36:19.688Z,100554.38
2023-03-04T09:38:46.850Z,100555.06
2023-03-04T09:41:40.628Z,100560.13
2023-03-04T09:44:29.419Z,100550.31
2023-03-04T09:47:01.243Z,100557.97
2023-03-04T09:49:28.790Z,100555.09
2023-03-04T09:52:20.868Z,100551.38
2023-03-04T09:55:21.016Z,100554.59
2023-03-04T09:58:00.279Z,100562.38
2023-03-04T10:00:44.543Z,100563.22
2023-03-04T10:03:37.797Z,100570.06
2023-03-04T10:06:10.301Z,100566.34
2023-03-04T10:08:57.339Z,100572.31
2023-03-04T10:11:50.313Z,100573.88
2023-03-04T10:14:23.157Z,100568.50
2023-03-04T10:16:52.960Z,100571.81
2023-03-04T10:19:32.134Z,100571.59
2023-03-04T10:21:59.500Z,100571.34
2023-03-04T10:24:30.677Z,100568.59
2023-03-04T10:27:05.795Z,100567.53
2023-03-04T10:29:33.974Z,100564.75
2023-03-04T10:32:00.995Z,100565.38
2023-03-04T10:34:28.113Z,100559.84
2023-03-04T10:37:08.726Z,100561.28
2023-03-04T10:39:43.664Z,100559.22
2023-03-04T10:42:27.252Z,100563.31
2023-03-04T10:44:59.471Z,100552.50
2023-03-04T10:47:32.677Z,100556.56
2023-03-04T10:50:02.424Z,100555.34
2023-03-04T10:52:41.231Z,100555.13
2023-03-04T10:55:22.361Z,100548.50
2023-03-04T10:57:56.876Z,100542.84
2023-03-04T11:00:35.619Z,100546.66
2023-03-04T11:03:29.821Z,100541.84
2023-03-04T11:06:19.854Z,100538.84
2023-03-04T11:08:58.888Z,100539.31
2023-03-04T11:11:42.900Z,100537.97
2023-03-04T11:14:24.852Z,100534.78
2023-03-04T11:16:59.326Z,100528.19
2023-03-04T11:19:39.709Z,100525.03
2023-03-04T11:22:06.986Z,100519.38
2023-03-04T11:24:36.857Z,100521.50
2023-03-04T11:27:22.460Z,100507.91
2023-03-04T11:30:00.423Z,100511.25
2023-03-04T11:32:40.827Z,100506.44
2023-03-04T11:35:35.246Z,100506.03
2023-03-04T11:38:18.488Z,100501.34
2023-03-04T11:41:12.965Z,100497.44
2023-03-04T11:43:44.924Z,100502.19
2023-03-04T11:46:42.359Z,100505.16
2023-03-04T11:49:30.339Z,100504.78
2023-03-04T11:52:03.028Z,100505.06
2023-03-04T11:54:58.662Z,100502.03
2023-03-04T11:57:53.189Z,100498.88
2023-03-04T12:00:41.781Z,100495.94
2023-03-04T12:03:36.441Z,100497.38
2023-03-04T12:06:18.497Z,100494.31
2023-03-04T12:09:09.785Z,100487.94
2023-03-04T12:11:55.638Z,100487.50
2023-03-04T12:14:46.338Z,100476.84
2023-03-04T12:17:35.653Z,100472.25
2023-03-04T12:20:37.329Z,100471.25
2023-03-04T12:23:49.740Z,100472.69
2023-03-04T12:26:22.977Z,100465.44
2023-03-04T12:29:08.394Z,100463.47
2023-03-04T12:31:41.002Z,100463.22
2023-03-04T12:34:31.349Z,100459.31
2023-03-04T12:37:30.658Z,100454.75
2023-03-04T12:40:37.375Z,100452.94
2023-03-04T12:43:36.297Z,100452.81
2023-03-04T12:46:32.053Z,100449.03
2023-03-04T12:49:23.283Z,100447.94
2023-03-04T12:52:02.103Z,100444.31
2023-03-04T12:54:43.179Z,100439.56
2023-03-04T12:57:22.952Z,100435.56
2023-03-04T13:00:13.989Z,100434.47
2023-03-04T13:03:11.718Z,100434.84
2023-03-04T13:06:04.362Z,100427.63
2023-03-04T13:08:58.321Z,100432.63
2023-03-04T13:11:28.327Z,100436.09
2023-03-04T13:14:14.774Z,100423.47
2023-03-04T13:16:54.477Z,100424.00
2023-03-04T13:19:52.701Z,100422.06
2023-03-04T13:22:40.773Z,100424.41
2023-03-04T13:25:50.366Z,100420.66
2023-03-04T13:28:32.970Z,100419.53
2023-03-04T13:31:57.343Z,100420.38
2023-03-04T13:34:45.808Z,100411.31
2023-03-04T13:37:58.162Z,100413.84
2023-03-04T13:40:35.457Z,100412.03
2023-03-04T13:43:25.906Z,100407.56
2023-03-04T13:45:53.034Z,100410.34
2023-03-04T13:48:37.159Z,100404.09
2023-03-04T13:51:04.428Z,100401.44
2023-03-04T13:53:40.733Z,100397.00
2023-03-04T13:56:37.447Z,100390.88
2023-03-04T13:59:07.620Z,100395.31
2023-03-04T14:01:38.891Z,100394.47
2023-03-04T14:04:35.280Z,100397.25
2023-03-04T14:07:19.404Z,100385.00
2023-03-04T14:10:00.241Z,100386.97
2023-03-04T14:12:30.307Z,100390.59
2023-03-04T14:15:02.754Z,100388.78
2023-03-04T14:17:37.321Z,100383.75
2023-03-04T14:20:36.054Z,100381.97
2023-03-04T14:23:23.021Z,100382.09
2023-03-04T14:25:50.170Z,100375.16
2023-03-04T14:28:20.780Z,100372.50
2023-03-04T14:30:57.158Z,100377.78
2023-03-04T14:33:30.486Z,100377.78
2023-03-04T14:36:01.419Z,100370.84
2023-03-04T14:38:38.100Z,100372.66
2023-03-04T14:41:34.395Z,100373.63
2023-03-04T14:44:26.307Z,100356.06
2023-03-04T14:47:08.301Z,100353.59
2023-03-04T14:49:39.766Z,100362.50
2023-03-04T14:52:07.382Z,100351.09
2023-03-04T14:54:40.395Z,100360.84
2023-03-04T14:57:29.708Z,100355.53
2023-03-04T14:59:56.789Z,100350.25
2023-03-04T15:02:33.141Z,100343.31
2023-03-04T15:05:25.835Z,100335.50
2023-03-04T15:08:06.964Z,100344.28
2023-03-04T15:10:38.895Z,100333.81
2023-03-04T15:13:09.491Z,100337.31
2023-03-04T15:15:46.147Z,100330.34
2023-03-04T15:18:26.589Z,100333.97
2023-03-04T15:21:27.216Z,100333.97
2023-03-04T15:23:54.210Z,100336.63
2023-03-04T15:26:21.225Z,100334.13
2023-03-04T15:28:48.323Z,100334.13
2023-03-04T15:31:20.201Z,100329.66
2023-03-04T15:33:48.121Z,100329.66
2023-03-04T15:36:20.892Z,100329.66
2023-03-04T15:38:53.440Z,100332.31
2023-03-04T15:41:26.431Z,100322.56
2023-03-04T15:43:54.796Z,100322.56
2023-03-04T15:46:21.945Z,100325.22
2023-03-04T15:48:50.041Z,100318.41
2023-03-04T15:51:22.317Z,100319.25
2023-03-04T15:53:59.172Z,100321.06
2023-03-04T15:56:33.097Z,100322.72
2023-03-04T15:59:11.229Z,100326.34
2023-03-04T16:01:38.421Z,100324.66
2023-03-04T16:04:05.621Z,100317.69
2023-03-04T16:06:33.263Z,100322.97
2023-03-04T16:09:01.219Z,100318.53
2023-03-04T16:11:32.513Z,100317.69
2023-03-04T16:13:59.465Z,100313.38
2023-03-04T16:16:26.395Z,100324.94
2023-03-04T16:18:53.316Z,100318.00
2023-03-04T16:21:25.061Z,100316.34
2023-03-04T16:23:54.419Z,100316.34
2023-03-04T16:26:24.919Z,100317.16
2023-03-04T16:28:53.433Z,100309.38
2023-03-04T16:31:22.154Z,100310.34
2023-03-04T16:33:49.215Z,100306.84
2023-03-04T16:36:22.653Z,100306.03
2023-03-04T16:38:50.418Z,100319.25
2023-03-04T16:41:26.363Z,100309.66
2023-03-04T16:43:55.807Z,100307.97
2023-03-04T16:46:22.964Z,100308.97
2023-03-04T16:48:49.902Z,100309.94
2023-03-04T16:51:20.574Z,100309.13
2023-03-04T16:53:56.527Z,100308.25
2023-03-04T16:56:24.073Z,100310.91
2023-03-04T16:58:54.062Z,100306.59
2023-03-04T17:01:25.948Z,100304.25
2023-03-04T17:03:53.810Z,100303.56
2023-03-04T17:06:21.171Z,100309.13
2023-03-04T17:08:48.271Z,100305.63
2023-03-04T17:11:23.117Z,100306.75
2023-03-04T17:13:50.538Z,100311.34
2023-03-04T17:16:18.483Z,100313.97
2023-03-04T17:18:45.970Z,100313.28
2023-03-04T17:21:17.209Z,100316.09
2023-03-04T17:23:44.141Z,100316.34
2023-03-04T17:26:11.749Z,100314.69
2023-03-04T17:28:39.302Z,100317.47
2023-03-04T17:31:16.338Z,100312.34
2023-03-04T17:33:44.564Z,100317.75
2023-03-04T17:36:13.582Z,100321.34
2023-03-04T17:38:41.213Z,100319.69
2023-03-04T17:41:17.340Z,100319.69
2023-03-04T17:43:50.514Z,100315.38
2023-03-04T17:46:22.009Z,100320.66
2023-03-04T17:48:49.455Z,100322.47
2023-03-04T17:51:16.397Z,100330.56
2023-03-04T17:53:43.337Z,100327.91
2023-03-04T17:56:12.305Z,100326.38
2023-03-04T17:58:40.310Z,100324.44
2023-03-04T18:01:20.169Z,100318.31
2023-03-04T18:03:47.221Z,100320.00
2023-03-04T18:06:14.696Z,100313.97
2023-03-04T18:08:41.748Z,100311.34
2023-03-04T18:11:09.330Z,100313.16
2023-03-04T18:13:40.971Z,100309.69
2023-03-04T18:16:09.024Z,100305.22
2023-03-04T18:18:36.539Z,100307.03
2023-03-04T18:21:04.941Z,100298.13
2023-03-04T18:23:32.865Z,100299.94
2023-03-04T18:26:01.595Z,100306.06
2023-03-04T18:28:28.910Z,100305.38
2023-03-04T18:30:57.000Z,100299.94
2023-03-04T18:33:24.353Z,100303.41
2023-03-04T18:36:03.488Z,100299.13
2023-03-04T18:38:31.237Z,100296.34
2023-03-04T18:41:00.502Z,100295.50
2023-03-04T18:43:28.041Z,100290.22
2023-03-04T18:46:26.407Z,100290.94
2023-03-04T18:48:56.210Z,100290.78
2023-03-04T18:51:23.160Z,100281.03
2023-03-04T18:53:50.110Z,100281.03
2023-03-04T18:56:37.580Z,100282.56
2023-03-04T18:59:13.894Z,100282.56
2023-03-04T19:01:41.370Z,100282.44
2023-03-04T19:04:09.251Z,100279.81
2023-03-04T19:06:36.316Z,100283.28
2023-03-04T19:09:06.453Z,100282.44
2023-03-04T19:11:33.757Z,100282.44
2023-03-04T19:14:00.707Z,100281.72
2023-03-04T19:16:27.693Z,100283.53
2023-03-04T19:18:54.693Z,100281.03
2023-03-04T19:21:21.634Z,100288.00
2023-03-04T19:23:48.608Z,100291.59
2023-03-04T19:26:15.660Z,100286.31
2023-03-04T19:28:42.737Z,100285.34
2023-03-04T19:31:11.118Z,100283.00
2023-03-04T19:33:41.545Z,100281.03
2023-03-04T19:36:10.149Z,100289.94
2023-03-04T19:38:37.349Z,100280.22
2023-03-04T19:41:10.701Z,100290.78
2023-03-04T19:43:39.170Z,100288.28
2023-03-04T19:46:08.540Z,100288.28
2023-03-04T19:48:36.866Z,100288.44
2023-03-04T19:51:05.147Z,100290.94
2023-03-04T19:53:34.666Z,100290.78
2023-03-04T19:56:01.892Z,100288.97
2023-03-04T19:58:28.797Z,100287.31
2023-03-04T20:00:56.220Z,100284.66
2023-03-04T20:03:24.054Z,100279.38
2023-03-04T20:05:51.024Z,100272.44
2023-03-04T20:08:18.669Z,100273.94
2023-03-04T20:10:45.674Z,100270.47
2023-03-04T20:13:12.684Z,100269.66
2023-03-04T20:15:43.611Z,100282.84
2023-03-04T20:18:10.697Z,100272.44
2023-03-04T20:20:39.046Z,100277.72
2023-03-04T20:23:06.175Z,100272.44
2023-03-04T20:25:33.149Z,100270.78
2023-03-04T20:28:00.226Z,100272.44
2023-03-04T20:30:27.339Z,100269.78
2023-03-04T20:32:54.291Z,100256.72
2023-03-04T20:35:21.372Z,100254.91
2023-03-04T20:37:48.314Z,100267.31
2023-03-04T20:40:15.345Z,100279.66
2023-03-04T20:42:42.319Z,100275.34
2023-03-04T20:45:09.791Z,100278.97
2023-03-04T20:47:39.469Z,100275.34
2023-03-04T20:50:07.431Z,100273.69
2023-03-04T20:52:34.416Z,100278.28
2023-03-04T20:55:01.442Z,100274.66
2023-03-04T20:57:30.216Z,100267.72
2023-03-04T20:59:57.205Z,100273.00
2023-03-04T21:02:25.365Z,100268.69
2023-03-04T21:04:52.457Z,100256.47
2023-03-04T21:07:19.491Z,100256.47
2023-03-04T21:09:46.446Z,100245.03
2023-03-04T21:12:13.550Z,100248.53
2023-03-04T21:14:40.831Z,100258.13
2023-03-04T21:17:07.848Z,100246.00
2023-03-04T21:19:43.106Z,100247.66
2023-03-04T21:22:18.074Z,100246.84
2023-03-04T21:24:46.366Z,100245.19
2023-03-04T21:27:16.385Z,100242.53
2023-03-04T21:29:43.693Z,100256.56
2023-03-04T21:32:24.662Z,100259.38
2023-03-04T21:34:52.731Z,100259.38
2023-03-04T21:37:24.450Z,100254.09
2023-03-04T21:39:51.696Z,100257.56
2023-03-04T21:42:18.855Z,100261.03
2023-03-04T21:44:49.735Z,100260.06
2023-03-04T21:47:19.180Z,100253.81
2023-03-04T21:49:46.368Z,100251.19
2023-03-04T21:52:13.478Z,100250.31
2023-03-04T21:54:40.548Z,100248.53
2023-03-04T21:57:07.613Z,100263.53
2023-03-04T21:59:34.570Z,100250.47
2023-03-04T22:02:02.295Z,100239.06
2023-03-04T22:04:29.273Z,100250.59
2023-03-04T22:06:56.311Z,100239.22
2023-03-04T22:09:23.330Z,100234.91
2023-03-04T22:11:50.351Z,100234.91
2023-03-04T22:14:17.276Z,100236.72
2023-03-04T22:16:59.562Z,100231.56
2023-03-04T22:19:31.596Z,100232.41
2023-03-04T22:21:59.207Z,100240.34
2023-03-04T22:24:26.403Z,100233.38
2023-03-04T22:26:53.477Z,100218.50
2023-03-04T22:29:20.432Z,100222.13
2023-03-04T22:31:47.654Z,100219.63
2023-03-04T22:34:16.818Z,100215.31
2023-03-04T22:36:46.194Z,100221.59
2023-03-04T22:39:19.052Z,100211.13
2023-03-04T22:41:46.387Z,100206.00
2023-03-04T22:44:13.975Z,100215.72
2023-03-04T22:46:41.083Z,100207.97
2023-03-04T22:49:11.454Z,100210.59
2023-03-04T22:51:44.005Z,100209.88
2023-03-04T22:54:17.504Z,100213.50
2023-03-04T22:56:45.139Z,100224.06
2023-03-04T22:59:12.162Z,100216.97
2023-03-04T23:01:39.285Z,100201.28
2023-03-04T23:04:06.231Z,100205.72
2023-03-04T23:06:33.561Z,100198.78
2023-03-04T23:09:00.803Z,100204.22
2023-03-04T23:11:35.348Z,100201.56
2023-03-04T23:14:06.367Z,100213.94
2023-03-04T23:16:37.178Z,100206.13
2023-03-04T23:19:06.453Z,100202.66
2023-03-04T23:21:33.979Z,100196.56
2023-03-04T23:24:06.920Z,100194.06
2023-03-04T23:26:41.067Z,100198.38
2023-03-04T23:29:12.426Z,100195.72
2023-03-04T23:31:39.429Z,100190.59
2023-03-04T23:34:06.916Z,100199.34
2023-03-04T23:36:36.277Z,100189.91
2023-03-04T23:39:06.419Z,100194.22
2023-03-04T23:41:34.427Z,100191.84
2023-03-04T23:44:02.056Z,100194.47
2023-03-04T23:46:29.364Z,100191.97
2023-03-04T23:48:56.802Z,100187.81
2023-03-04T23:51:29.094Z,100176.44
2023-03-04T23:53:56.742Z,100185.19
2023-03-04T23:56:28.900Z,100185.19
2023-03-04T23:58:57.388Z,100178.34
